createdAt,value
2023-01-11T00:02:43.415Z,6.4
2023-01-11T00:05:43.409Z,6.4
2023-01-11T00:08:43.415Z,6.4
2023-01-11T00:11:43.402Z,6.4
2023-01-11T00:14:43.396Z,6.4
2023-01-11T00:17:43.410Z,6.4
2023-01-11T00:20:43.415Z,6.4
2023-01-11T00:23:43.424Z,6.5
2023-01-11T00:26:43.413Z,6.5
2023-01-11T00:29:43.402Z,6.5
2023-01-11T00:32:43.404Z,6.5
2023-01-11T00:35:43.411Z,6.5
2023-01-11T00:38:43.415Z,6.5
2023-01-11T00:41:43.415Z,6.5
2023-01-11T00:44:43.408Z,6.5
2023-01-11T00:47:43.412Z,6.5
2023-01-11T00:50:43.415Z,6.5
2023-01-11T00:53:43.424Z,6.6
2023-01-11T00:56:43.421Z,6.6
2023-01-11T00:59:43.432Z,6.6
2023-01-11T01:02:43.448Z,6.6
2023-01-11T01:05:43.426Z,6.6
2023-01-11T01:08:43.422Z,6.6
2023-01-11T01:11:43.416Z,6.6
2023-01-11T01:14:43.412Z,6.6
2023-01-11T01:17:43.414Z,6.6
2023-01-11T01:20:43.413Z,6.6
2023-01-11T01:23:43.424Z,6.6
2023-01-11T01:26:43.412Z,6.6
2023-01-11T01:29:43.419Z,6.6
2023-01-11T01:32:43.411Z,6.6
2023-01-11T01:35:43.424Z,6.6
2023-01-11T01:38:43.423Z,6.6
2023-01-11T01:41:43.424Z,6.6
2023-01-11T01:44:43.422Z,6.7
2023-01-11T01:47:43.422Z,6.7
2023-01-11T01:50:43.417Z,6.7
2023-01-11T01:53:43.428Z,6.7
2023-01-11T01:56:43.414Z,6.6
2023-01-11T01:59:43.421Z,6.6
2023-01-11T02:02:43.433Z,6.6
2023-01-11T02:05:43.422Z,6.6
2023-01-11T02:08:43.430Z,6.6
2023-01-11T02:11:43.475Z,6.6
2023-01-11T02:14:43.425Z,6.6
2023-01-11T02:17:43.433Z,6.6
2023-01-11T02:20:43.424Z,6.6
2023-01-11T02:23:43.453Z,6.7
2023-01-11T02:26:43.417Z,6.6
2023-01-11T02:29:43.430Z,6.7
2023-01-11T02:32:43.416Z,6.7
2023-01-11T02:35:43.426Z,6.7
2023-01-11T02:38:43.424Z,6.7
2023-01-11T02:41:43.419Z,6.7
2023-01-11T02:44:43.446Z,6.7
2023-01-11T02:47:43.422Z,6.7
2023-01-11T02:50:43.443Z,6.7
2023-01-11T02:53:43.438Z,6.7
2023-01-11T02:56:43.424Z,6.7
2023-01-11T02:59:43.423Z,6.7
2023-01-11T03:02:43.442Z,6.7
2023-01-11T03:08:43.427Z,6.7
2023-01-11T03:11:43.422Z,6.7
2023-01-11T03:14:43.438Z,6.7
2023-01-11T03:17:43.452Z,6.7
2023-01-11T03:20:43.437Z,6.7
2023-01-11T03:23:43.429Z,6.7
2023-01-11T03:26:43.435Z,6.7
2023-01-11T03:29:43.425Z,6.7
2023-01-11T03:32:43.424Z,6.7
2023-01-11T03:35:43.425Z,6.8
2023-01-11T03:38:43.431Z,6.8
2023-01-11T03:41:43.452Z,6.8
2023-01-11T03:44:43.449Z,6.8
2023-01-11T03:47:43.425Z,6.8
2023-01-11T03:50:43.435Z,6.8
2023-01-11T03:53:43.434Z,6.8
2023-01-11T03:56:43.431Z,6.8
2023-01-11T03:59:43.428Z,6.8
2023-01-11T04:02:43.425Z,6.8
2023-01-11T04:05:43.433Z,6.8
2023-01-11T04:08:43.430Z,6.9
2023-01-11T04:11:43.428Z,6.9
2023-01-11T04:14:43.469Z,6.9
2023-01-11T04:17:43.426Z,6.9
2023-01-11T04:20:43.433Z,6.9
2023-01-11T04:23:43.433Z,6.9
2023-01-11T04:26:43.431Z,7
2023-01-11T04:29:43.431Z,7
2023-01-11T04:32:43.433Z,7
2023-01-11T04:35:43.436Z,7
2023-01-11T04:38:43.435Z,7
2023-01-11T04:41:43.429Z,7
2023-01-11T04:44:43.434Z,7
2023-01-11T04:47:43.438Z,7
2023-01-11T04:50:43.484Z,7
2023-01-11T04:53:43.435Z,7
2023-01-11T04:56:43.431Z,7
2023-01-11T04:59:43.458Z,7.1
2023-01-11T05:02:43.443Z,7.1
2023-01-11T05:05:43.446Z,7.1
2023-01-11T05:08:43.435Z,7.1
2023-01-11T05:11:43.436Z,7.1
2023-01-11T05:14:43.439Z,7.1
2023-01-11T05:17:43.438Z,7.1
2023-01-11T05:20:43.434Z,7.1
2023-01-11T05:23:43.445Z,7.1
2023-01-11T05:26:43.434Z,7.2
2023-01-11T05:29:43.445Z,7.2
2023-01-11T05:32:43.435Z,7.2
2023-01-11T05:35:43.443Z,7.2
2023-01-11T05:38:43.431Z,7.2
2023-01-11T05:41:43.435Z,7.2
2023-01-11T05:44:43.445Z,7.2
2023-01-11T05:47:43.440Z,7.2
2023-01-11T05:50:43.449Z,7.3
2023-01-11T05:56:43.456Z,7.3
2023-01-11T06:02:43.548Z,7.3
2023-01-11T06:05:45.276Z,7.3
2023-01-11T06:08:43.470Z,7.4
2023-01-11T06:11:43.440Z,7.4
2023-01-11T06:14:43.445Z,7.4
2023-01-11T06:17:43.453Z,7.4
2023-01-11T06:20:43.447Z,7.4
2023-01-11T06:23:43.455Z,7.4
2023-01-11T06:26:43.457Z,7.4
2023-01-11T06:29:43.453Z,7.4
2023-01-11T06:32:43.447Z,7.5
2023-01-11T06:35:43.473Z,7.5
2023-01-11T06:38:43.457Z,7.5
2023-01-11T06:41:43.453Z,7.5
2023-01-11T06:44:43.445Z,7.5
2023-01-11T06:47:43.460Z,7.5
2023-01-11T06:50:43.453Z,7.5
2023-01-11T06:53:43.452Z,7.5
2023-01-11T06:56:43.448Z,7.5
2023-01-11T06:59:43.452Z,7.5
2023-01-11T07:02:43.467Z,7.5
2023-01-11T07:05:43.453Z,7.5
2023-01-11T07:08:43.449Z,7.5
2023-01-11T07:11:43.458Z,7.6
2023-01-11T07:14:43.454Z,7.6
2023-01-11T07:17:43.455Z,7.6
2023-01-11T07:20:43.452Z,7.6
2023-01-11T07:23:43.466Z,7.6
2023-01-11T07:26:43.480Z,7.6
2023-01-11T07:29:43.451Z,7.6
2023-01-11T07:32:43.453Z,7.6
2023-01-11T07:35:43.477Z,7.6
2023-01-11T07:38:43.463Z,7.6
2023-01-11T07:41:43.463Z,7.6
2023-01-11T07:44:43.478Z,7.6
2023-01-11T07:50:44.949Z,7.7
2023-01-11T07:53:43.476Z,7.7
2023-01-11T07:56:43.480Z,7.7
2023-01-11T07:59:43.467Z,7.7
2023-01-11T08:02:43.559Z,7.7
2023-01-11T08:05:43.462Z,7.7
2023-01-11T08:08:43.508Z,7.7
2023-01-11T08:11:43.466Z,7.7
2023-01-11T08:14:43.465Z,7.7
2023-01-11T08:17:43.462Z,7.8
2023-01-11T08:20:43.464Z,7.8
2023-01-11T08:23:43.492Z,7.8
2023-01-11T08:26:43.471Z,7.8
2023-01-11T08:29:43.461Z,7.8
2023-01-11T08:32:43.465Z,7.8
2023-01-11T08:35:43.462Z,7.8
2023-01-11T08:38:43.468Z,7.8
2023-01-11T08:41:43.493Z,7.8
2023-01-11T08:44:43.469Z,7.8
2023-01-11T08:47:43.469Z,7.8
2023-01-11T08:50:43.477Z,7.9
2023-01-11T08:53:43.466Z,7.9
2023-01-11T08:56:43.471Z,7.9
2023-01-11T08:59:43.472Z,7.9
2023-01-11T09:02:43.515Z,7.9
2023-01-11T09:05:43.467Z,7.9
2023-01-11T09:08:43.468Z,7.9
2023-01-11T09:11:43.475Z,7.9
2023-01-11T09:14:43.470Z,7.9
2023-01-11T09:17:43.472Z,8
2023-01-11T09:23:43.465Z,8
2023-01-11T09:26:43.715Z,8
2023-01-11T09:29:43.476Z,8
2023-01-11T09:32:43.482Z,8
2023-01-11T09:35:43.480Z,8
2023-01-11T09:38:43.468Z,8
2023-01-11T09:41:43.473Z,8
2023-01-11T09:44:43.468Z,8
2023-01-11T09:47:43.471Z,8.1
2023-01-11T09:50:43.488Z,8.1
2023-01-11T09:53:43.476Z,8.1
2023-01-11T09:56:43.477Z,8.1
2023-01-11T09:59:43.480Z,8.1
2023-01-11T10:02:43.477Z,8.1
2023-01-11T10:05:43.475Z,8.1
2023-01-11T10:18:21.509Z,8.1
2023-01-11T10:18:38.263Z,8.2
2023-01-11T10:20:43.469Z,8.2
2023-01-11T10:23:43.464Z,8.2
2023-01-11T10:26:43.496Z,8.2
2023-01-11T10:29:43.474Z,8.2
2023-01-11T10:32:43.485Z,8.2
2023-01-11T10:35:43.478Z,8.3
2023-01-11T10:38:43.507Z,8.3
2023-01-11T10:41:43.474Z,8.3
2023-01-11T10:44:43.481Z,8.3
2023-01-11T10:47:43.483Z,8.3
2023-01-11T10:50:43.477Z,8.3
2023-01-11T10:53:43.519Z,8.4
2023-01-11T10:57:02.162Z,8.4
2023-01-11T10:59:43.477Z,8.4
2023-01-11T11:02:43.471Z,8.4
2023-01-11T11:05:43.481Z,8.4
2023-01-11T11:08:43.476Z,8.4
2023-01-11T11:11:43.475Z,8.4
2023-01-11T11:14:43.516Z,8.4
2023-01-11T11:17:43.478Z,8.5
2023-01-11T11:20:43.476Z,8.5
2023-01-11T11:23:43.493Z,8.5
2023-01-11T11:26:43.499Z,8.5
2023-01-11T11:29:43.484Z,8.5
2023-01-11T11:32:43.487Z,8.6
2023-01-11T11:35:43.479Z,8.6
2023-01-11T11:38:43.485Z,8.7
2023-01-11T11:41:43.480Z,8.7
2023-01-11T11:44:43.486Z,8.7
2023-01-11T11:47:43.513Z,8.8
2023-01-11T11:50:45.376Z,8.8
2023-01-11T11:53:43.509Z,8.8
2023-01-11T11:56:43.517Z,8.9
2023-01-11T11:59:43.507Z,8.9
2023-01-11T12:02:43.502Z,8.9
2023-01-11T12:05:43.505Z,9
2023-01-11T12:08:43.507Z,9
2023-01-11T12:11:43.507Z,9
2023-01-11T12:14:43.523Z,9
2023-01-11T12:17:43.518Z,9
2023-01-11T12:20:43.501Z,9
2023-01-11T12:26:43.628Z,9
2023-01-11T12:29:43.510Z,9.1
2023-01-11T12:32:43.506Z,9.1
2023-01-11T12:35:43.503Z,9.1
2023-01-11T12:41:43.510Z,9.1
2023-01-11T12:44:43.509Z,9.1
2023-01-11T12:47:43.514Z,9.1
2023-01-11T12:50:43.523Z,9.1
2023-01-11T12:53:43.532Z,9.1
2023-01-11T12:56:43.520Z,9.1
2023-01-11T12:59:43.521Z,9.1
2023-01-11T13:02:43.546Z,9.1
2023-01-11T13:05:43.523Z,9.1
2023-01-11T13:08:43.513Z,9.1
2023-01-11T13:11:43.539Z,9.1
2023-01-11T13:14:43.517Z,9.1
2023-01-11T13:17:43.510Z,9.2
2023-01-11T13:20:59.108Z,9.2
2023-01-11T13:23:43.512Z,9.2
2023-01-11T13:26:43.575Z,9.2
2023-01-11T13:29:43.515Z,9.2
2023-01-11T13:32:43.516Z,9.2
2023-01-11T13:35:43.509Z,9.2
2023-01-11T13:38:43.522Z,9.2
2023-01-11T13:41:43.522Z,9.2
2023-01-11T13:44:43.513Z,9.2
2023-01-11T13:50:43.522Z,9.2
2023-01-11T13:53:43.521Z,9.2
2023-01-11T13:56:43.512Z,9.2
2023-01-11T13:59:43.530Z,9.2
2023-01-11T14:02:43.512Z,9.2
2023-01-11T14:05:43.521Z,9.2
2023-01-11T14:08:43.517Z,9.2
2023-01-11T14:11:43.518Z,9.2
2023-01-11T14:14:43.509Z,9.2
2023-01-11T14:17:43.517Z,9.2
2023-01-11T14:20:43.522Z,9.2
2023-01-11T14:23:43.514Z,9.2
2023-01-11T14:26:43.562Z,9.1
2023-01-11T14:29:43.531Z,9.1
2023-01-11T14:32:43.544Z,9.1
2023-01-11T14:35:43.529Z,9.1
2023-01-11T14:38:43.515Z,9.1
2023-01-11T14:41:43.512Z,9.1
2023-01-11T14:44:43.513Z,9
2023-01-11T14:47:43.516Z,9
2023-01-11T14:50:43.528Z,9
2023-01-11T14:53:43.520Z,9
2023-01-11T14:56:43.523Z,9
2023-01-11T14:59:43.519Z,9
2023-01-11T15:02:43.521Z,9
2023-01-11T15:05:43.517Z,9
2023-01-11T15:08:43.523Z,8.9
2023-01-11T15:11:43.517Z,8.9
2023-01-11T15:14:43.517Z,8.9
2023-01-11T15:17:43.537Z,8.8
2023-01-11T15:20:43.520Z,8.8
2023-01-11T15:23:43.523Z,8.8
2023-01-11T15:26:43.524Z,8.8
2023-01-11T15:29:43.520Z,8.7
2023-01-11T15:32:43.517Z,8.7
2023-01-11T15:35:43.525Z,8.7
2023-01-11T15:38:43.527Z,8.7
2023-01-11T15:41:43.523Z,8.6
2023-01-11T15:44:43.528Z,8.6
2023-01-11T15:50:43.523Z,8.5
2023-01-11T15:53:43.547Z,8.5
2023-01-11T15:56:43.547Z,8.5
2023-01-11T15:59:43.541Z,8.4
2023-01-11T16:02:43.552Z,8.4
2023-01-11T16:05:43.550Z,8.4
2023-01-11T16:08:43.543Z,8.4
2023-01-11T16:11:43.549Z,8.4
2023-01-11T16:14:43.549Z,8.3
2023-01-11T16:17:43.551Z,8.3
2023-01-11T16:20:43.556Z,8.3
2023-01-11T16:23:43.545Z,8.2
2023-01-11T16:26:43.608Z,8.2
2023-01-11T16:29:43.551Z,8.2
2023-01-11T16:32:43.550Z,8.2
2023-01-11T16:35:43.560Z,8.1
2023-01-11T16:41:43.543Z,8.1
2023-01-11T16:44:43.555Z,8
2023-01-11T16:47:43.553Z,8
2023-01-11T16:50:43.549Z,8
2023-01-11T16:53:43.652Z,7.9
2023-01-11T16:56:43.552Z,7.9
2023-01-11T16:59:43.546Z,7.9
2023-01-11T17:02:43.546Z,7.9
2023-01-11T17:05:43.553Z,7.9
2023-01-11T17:08:43.555Z,7.9
2023-01-11T17:11:43.549Z,7.9
2023-01-11T17:14:43.551Z,7.8
2023-01-11T17:17:43.621Z,7.8
2023-01-11T17:20:43.559Z,7.8
2023-01-11T17:23:43.553Z,7.8
2023-01-11T17:26:43.595Z,7.8
2023-01-11T17:29:43.551Z,7.8
2023-01-11T17:32:43.551Z,7.8
2023-01-11T17:35:43.563Z,7.8
2023-01-11T17:41:43.613Z,7.8
2023-01-11T17:44:43.558Z,7.8
2023-01-11T17:47:43.551Z,7.7
2023-01-11T17:50:43.551Z,7.7
2023-01-11T17:53:43.567Z,7.7
2023-01-11T17:56:43.568Z,7.6
2023-01-11T17:59:43.563Z,7.6
2023-01-11T18:02:43.629Z,7.6
2023-01-11T18:05:43.570Z,7.6
2023-01-11T18:08:43.567Z,7.6
2023-01-11T18:11:43.569Z,7.6
2023-01-11T18:14:43.565Z,7.6
2023-01-11T18:17:43.564Z,7.6
2023-01-11T18:20:43.565Z,7.6
2023-01-11T18:23:43.563Z,7.6
2023-01-11T18:26:43.596Z,7.6
2023-01-11T18:29:43.575Z,7.6
2023-01-11T18:32:43.575Z,7.6
2023-01-11T18:35:43.564Z,7.6
2023-01-11T18:38:43.567Z,7.5
2023-01-11T18:41:44.773Z,7.5
2023-01-11T18:44:43.570Z,7.5
2023-01-11T18:47:43.569Z,7.5
2023-01-11T18:50:43.567Z,7.5
2023-01-11T18:53:43.562Z,7.5
2023-01-11T18:56:43.586Z,7.5
2023-01-11T18:59:43.584Z,7.4
2023-01-11T19:02:43.592Z,7.4
2023-01-11T19:05:43.571Z,7.4
2023-01-11T19:08:43.571Z,7.4
2023-01-11T19:11:43.564Z,7.4
2023-01-11T19:14:43.572Z,7.4
2023-01-11T19:20:43.581Z,7.4
2023-01-11T19:23:43.580Z,7.3
2023-01-11T19:26:43.627Z,7.3
2023-01-11T19:29:43.580Z,7.3
2023-01-11T19:32:43.581Z,7.3
2023-01-11T19:35:43.570Z,7.3
2023-01-11T19:38:43.574Z,7.3
2023-01-11T19:41:43.568Z,7.2
2023-01-11T19:44:43.577Z,7.2
2023-01-11T19:47:43.566Z,7.2
2023-01-11T19:50:43.571Z,7.2
2023-01-11T19:53:43.578Z,7.2
2023-01-11T19:56:43.571Z,7.2
2023-01-11T19:59:43.575Z,7.2
2023-01-11T20:02:43.634Z,7.2
2023-01-11T20:05:43.566Z,7.2
2023-01-11T20:08:43.565Z,7.2
2023-01-11T20:11:43.565Z,7.1
2023-01-11T20:14:43.573Z,7.1
2023-01-11T20:17:43.572Z,7.1
2023-01-11T20:20:43.573Z,7.1
2023-01-11T20:23:43.580Z,7.1
2023-01-11T20:26:43.678Z,7
2023-01-11T20:29:43.583Z,7
2023-01-11T20:32:43.578Z,7
2023-01-11T20:35:43.572Z,7
2023-01-11T20:38:43.583Z,7
2023-01-11T20:41:43.568Z,7
2023-01-11T20:44:43.570Z,7
2023-01-11T20:47:43.572Z,7
2023-01-11T20:50:43.574Z,7
2023-01-11T20:53:43.579Z,7
2023-01-11T20:59:43.593Z,6.9
2023-01-11T21:02:43.609Z,6.9
2023-01-11T21:05:43.572Z,6.9
2023-01-11T21:08:43.580Z,6.9
2023-01-11T21:11:43.585Z,6.9
2023-01-11T21:17:43.583Z,7
2023-01-11T21:20:43.576Z,7
2023-01-11T21:23:43.579Z,7
2023-01-11T21:26:43.708Z,6.9
2023-01-11T21:29:43.581Z,6.9
2023-01-11T21:32:43.580Z,6.9
2023-01-11T21:35:43.581Z,6.9
2023-01-11T21:38:43.584Z,6.9
2023-01-11T21:41:43.581Z,6.9
2023-01-11T21:44:43.590Z,6.9
2023-01-11T21:47:43.575Z,6.8
2023-01-11T21:50:43.594Z,6.8
2023-01-11T21:53:43.592Z,6.8
2023-01-11T21:56:43.571Z,6.8
2023-01-11T21:59:43.583Z,6.8
2023-01-11T22:02:43.582Z,6.7
2023-01-11T22:05:43.582Z,6.7
2023-01-11T22:08:43.579Z,6.7
2023-01-11T22:11:43.580Z,6.7
2023-01-11T22:14:43.582Z,6.7
2023-01-11T22:17:43.580Z,6.7
2023-01-11T22:20:43.581Z,6.7
2023-01-11T22:23:43.585Z,6.7
2023-01-11T22:26:43.640Z,6.6
2023-01-11T22:29:43.593Z,6.6
2023-01-11T22:32:43.589Z,6.6
2023-01-11T22:35:43.664Z,6.6
2023-01-11T22:38:43.581Z,6.6
2023-01-11T22:41:43.583Z,6.6
2023-01-11T22:44:43.577Z,6.6
2023-01-11T22:47:43.580Z,6.6
2023-01-11T22:50:43.582Z,6.6
2023-01-11T22:53:43.587Z,6.7
2023-01-11T22:56:43.591Z,6.7
2023-01-11T22:59:43.579Z,6.7
2023-01-11T23:02:43.602Z,6.7
2023-01-11T23:05:43.587Z,6.8
2023-01-11T23:08:43.600Z,6.8
2023-01-11T23:11:43.585Z,6.8
2023-01-11T23:14:43.583Z,6.8
2023-01-11T23:17:43.585Z,6.9
2023-01-11T23:20:43.584Z,6.9
2023-01-11T23:23:43.586Z,6.9
2023-01-11T23:26:43.670Z,6.9
2023-01-11T23:29:43.587Z,7
2023-01-11T23:32:43.596Z,7
2023-01-11T23:35:43.586Z,7
2023-01-11T23:38:43.591Z,7.1
2023-01-11T23:41:43.588Z,7.1
2023-01-11T23:44:43.585Z,7.1
2023-01-11T23:47:43.596Z,7.2
2023-01-11T23:50:43.589Z,7.2
2023-01-11T23:53:43.623Z,7.2
2023-01-11T23:56:43.587Z,7.2
2023-01-11T23:59:43.592Z,7.3
